createdAt,value
2016-02-06T00:00:56.204Z,0
2016-02-06T00:01:56.239Z,0
2016-02-06T00:02:56.242Z,0
2016-02-06T00:03:56.214Z,0
2016-02-06T00:04:56.201Z,0
2016-02-06T00:05:56.218Z,0
2016-02-06T00:06:56.082Z,0
2016-02-06T00:07:56.196Z,0
2016-02-06T00:08:56.215Z,0
2016-02-06T00:09:56.201Z,0
2016-02-06T00:10:56.204Z,0
2016-02-06T00:11:56.206Z,0
2016-02-06T00:12:56.210Z,0
2016-02-06T00:13:56.213Z,0
2016-02-06T00:14:56.216Z,0
2016-02-06T00:15:56.188Z,0
2016-02-06T00:16:56.191Z,0
2016-02-06T00:17:56.224Z,0
2016-02-06T00:18:56.180Z,0
2016-02-06T00:19:56.198Z,0
2016-02-06T00:20:56.187Z,0
2016-02-06T00:21:56.173Z,0
2016-02-06T00:22:56.176Z,0
2016-02-06T00:23:56.476Z,0
2016-02-06T00:24:56.198Z,0
2016-02-06T00:25:56.169Z,0
2016-02-06T00:26:56.157Z,0
2016-02-06T00:27:56.159Z,0
2016-02-06T00:28:56.178Z,0
2016-02-06T00:29:56.164Z,0
2016-02-06T00:30:56.168Z,0
2016-02-06T00:31:56.170Z,0
2016-02-06T00:32:56.157Z,0
2016-02-06T00:33:56.181Z,0
2016-02-06T00:34:55.996Z,0
2016-02-06T00:35:56.171Z,0
2016-02-06T00:36:56.159Z,0
2016-02-06T00:37:56.177Z,0
2016-02-06T00:38:56.149Z,0
2016-02-06T00:39:56.151Z,0
2016-02-06T00:40:56.154Z,0
2016-02-06T00:41:56.187Z,0
2016-02-06T00:42:56.129Z,0
2016-02-06T00:43:56.131Z,0
2016-02-06T00:44:56.134Z,0
2016-02-06T00:45:56.140Z,0
2016-02-06T00:46:56.158Z,0
2016-02-06T00:47:56.177Z,0
2016-02-06T00:48:56.132Z,0
2016-02-06T00:49:56.119Z,0
2016-02-06T00:50:56.138Z,0
2016-02-06T00:51:56.109Z,0
2016-02-06T00:52:56.112Z,0
2016-02-06T00:53:56.116Z,0
2016-02-06T00:54:56.149Z,0
2016-02-06T00:55:56.121Z,0
2016-02-06T00:56:56.108Z,0
2016-02-06T00:57:56.095Z,0
2016-02-06T00:58:56.113Z,0
2016-02-06T00:59:56.085Z,0
2016-02-06T01:00:56.087Z,0
2016-02-06T01:01:56.090Z,0
2016-02-06T01:02:56.420Z,0
2016-02-06T01:03:56.085Z,0
2016-02-06T01:04:56.195Z,0
2016-02-06T01:05:56.090Z,0
2016-02-06T01:06:56.079Z,0
2016-02-06T01:07:56.066Z,0
2016-02-06T01:08:56.069Z,0
2016-02-06T01:09:56.103Z,0
2016-02-06T01:10:56.091Z,0
2016-02-06T01:11:56.077Z,0
2016-02-06T01:12:56.063Z,0
2016-02-06T01:13:56.068Z,0
2016-02-06T01:14:56.086Z,0
2016-02-06T01:15:56.073Z,0
2016-02-06T01:16:56.044Z,0
2016-02-06T01:17:56.068Z,0
2016-02-06T01:18:56.055Z,0
2016-02-06T01:19:56.073Z,0
2016-02-06T01:20:56.060Z,0
2016-02-06T01:21:56.047Z,0
2016-02-06T01:22:56.034Z,0
2016-02-06T01:23:56.037Z,0
2016-02-06T01:24:56.071Z,0
2016-02-06T01:25:56.026Z,0
2016-02-06T01:26:56.031Z,0
2016-02-06T01:27:56.034Z,0
2016-02-06T01:28:56.020Z,0
2016-02-06T01:29:56.055Z,0
2016-02-06T01:30:56.010Z,0
2016-02-06T01:31:56.013Z,0
2016-02-06T01:32:56.023Z,0
2016-02-06T01:33:56.042Z,0
2016-02-06T01:34:56.014Z,0
2016-02-06T01:35:56.017Z,0
2016-02-06T01:36:56.003Z,0
2016-02-06T01:37:56.022Z,0
2016-02-06T01:38:55.994Z,0
2016-02-06T01:39:55.997Z,0
2016-02-06T01:40:55.999Z,0
2016-02-06T01:41:56.033Z,0
2016-02-06T01:42:55.972Z,0
2016-02-06T01:43:56.008Z,0
2016-02-06T01:44:55.978Z,0
2016-02-06T01:45:55.966Z,0
2016-02-06T01:46:55.968Z,0
2016-02-06T01:47:56.002Z,0
2016-02-06T01:48:55.974Z,0
2016-02-06T01:49:55.961Z,0
2016-02-06T01:50:55.963Z,0
2016-02-06T01:51:55.997Z,0
2016-02-06T01:52:55.968Z,0
2016-02-06T01:53:55.956Z,0
2016-02-06T01:54:55.959Z,0
2016-02-06T01:55:55.977Z,0
2016-02-06T01:56:55.948Z,0
2016-02-06T01:57:55.935Z,0
2016-02-06T01:58:55.953Z,0
2016-02-06T01:59:55.941Z,0
2016-02-06T02:00:55.929Z,0
2016-02-06T02:01:55.947Z,0
2016-02-06T02:02:55.934Z,0
2016-02-06T02:03:55.922Z,0
2016-02-06T02:04:55.925Z,0
2016-02-06T02:05:55.990Z,0
2016-02-06T02:06:55.914Z,0
2016-02-06T02:07:55.183Z,0
2016-02-06T02:08:55.935Z,0
2016-02-06T02:09:55.923Z,0
2016-02-06T02:10:55.910Z,0
2016-02-06T02:11:55.897Z,0
2016-02-06T02:12:55.886Z,0
2016-02-06T02:13:55.889Z,0
2016-02-06T02:14:55.907Z,0
2016-02-06T02:15:55.894Z,0
2016-02-06T02:16:55.882Z,0
2016-02-06T02:17:55.884Z,0
2016-02-06T02:18:55.918Z,0
2016-02-06T02:19:55.874Z,0
2016-02-06T02:20:55.705Z,0
2016-02-06T02:21:55.879Z,0
2016-02-06T02:22:55.851Z,0
2016-02-06T02:23:55.853Z,0
2016-02-06T02:24:55.856Z,0
2016-02-06T02:25:55.864Z,0
2016-02-06T02:26:55.866Z,0
2016-02-06T02:27:55.853Z,0
2016-02-06T02:28:55.855Z,0
2016-02-06T02:29:55.858Z,0
2016-02-06T02:30:55.819Z,0
2016-02-06T02:31:55.839Z,0
2016-02-06T02:32:55.826Z,0
2016-02-06T02:33:55.826Z,0
2016-02-06T02:34:55.814Z,0
2016-02-06T02:35:55.831Z,0
2016-02-06T02:36:55.834Z,0
2016-02-06T02:37:55.805Z,0
2016-02-06T02:38:55.793Z,0
2016-02-06T02:39:55.812Z,0
2016-02-06T02:40:55.815Z,0
2016-02-06T02:41:55.787Z,0
2016-02-06T02:42:56.040Z,0
2016-02-06T02:43:55.792Z,0
2016-02-06T02:44:55.763Z,0
2016-02-06T02:45:55.782Z,0
2016-02-06T02:46:55.802Z,0
2016-02-06T02:47:55.772Z,0
2016-02-06T02:48:55.760Z,0
2016-02-06T02:49:55.762Z,0
2016-02-06T02:50:55.765Z,0
2016-02-06T02:51:55.737Z,0
2016-02-06T02:52:55.755Z,0
2016-02-06T02:53:55.757Z,0
2016-02-06T02:54:55.760Z,0
2016-02-06T02:55:55.778Z,0
2016-02-06T02:56:55.782Z,0
2016-02-06T02:57:55.565Z,0
2016-02-06T02:58:55.724Z,0
2016-02-06T02:59:55.743Z,0
2016-02-06T03:00:55.715Z,0
2016-02-06T03:01:55.702Z,0
2016-02-06T03:02:55.705Z,0
2016-02-06T03:03:55.728Z,0
2016-02-06T03:04:55.699Z,0
2016-02-06T03:05:55.717Z,0
2016-02-06T03:06:55.691Z,0
2016-02-06T03:07:55.709Z,0
2016-02-06T03:08:55.680Z,0
2016-02-06T03:09:55.667Z,0
2016-02-06T03:10:55.686Z,0
2016-02-06T03:11:55.673Z,0
2016-02-06T03:12:55.661Z,0
2016-02-06T03:13:55.648Z,0
2016-02-06T03:14:55.668Z,0
2016-02-06T03:15:55.670Z,0
2016-02-06T03:16:55.658Z,0
2016-02-06T03:17:55.629Z,0
2016-02-06T03:18:55.647Z,0
2016-02-06T03:19:55.636Z,0
2016-02-06T03:20:55.639Z,0
2016-02-06T03:21:55.625Z,0
2016-02-06T03:22:55.629Z,0
2016-02-06T03:23:55.616Z,0
2016-02-06T03:24:55.619Z,0
2016-02-06T03:25:55.621Z,0
2016-02-06T03:26:55.608Z,0
2016-02-06T03:27:55.596Z,0
2016-02-06T03:28:55.599Z,0
2016-02-06T03:29:55.617Z,0
2016-02-06T03:30:55.589Z,0
2016-02-06T03:31:55.576Z,0
2016-02-06T03:32:55.581Z,0
2016-02-06T03:33:55.567Z,0
2016-02-06T03:34:55.570Z,0
2016-02-06T03:35:55.573Z,0
2016-02-06T03:36:55.546Z,0
2016-02-06T03:37:55.564Z,0
2016-02-06T03:38:55.394Z,0
2016-02-06T03:39:55.569Z,0
2016-02-06T03:40:55.543Z,0
2016-02-06T03:41:55.546Z,0
2016-02-06T03:42:55.518Z,0
2016-02-06T03:43:55.536Z,0
2016-02-06T03:44:55.507Z,0
2016-02-06T03:45:55.542Z,0
2016-02-06T03:46:55.512Z,0
2016-02-06T03:47:55.515Z,0
2016-02-06T03:48:55.518Z,0
2016-02-06T03:49:55.505Z,0
2016-02-06T03:50:55.523Z,0
2016-02-06T03:51:55.480Z,0
2016-02-06T03:52:55.482Z,0
2016-02-06T03:53:55.472Z,0
2016-02-06T03:54:55.475Z,0
2016-02-06T03:55:55.508Z,0
2016-02-06T03:56:55.480Z,0
2016-02-06T03:57:55.483Z,0
2016-02-06T03:58:55.454Z,0
2016-02-06T03:59:55.457Z,0
2016-02-06T04:00:55.447Z,0
2016-02-06T04:01:55.452Z,0
2016-02-06T04:02:55.455Z,0
2016-02-06T04:03:55.439Z,0
2016-02-06T04:04:55.427Z,0
2016-02-06T04:05:55.432Z,0
2016-02-06T04:06:55.419Z,0
2016-02-06T04:07:55.422Z,0
2016-02-06T04:08:55.409Z,0
2016-02-06T04:09:55.411Z,0
2016-02-06T04:10:55.399Z,0
2016-02-06T04:11:55.542Z,0
2016-02-06T04:12:55.405Z,0
2016-02-06T04:13:55.377Z,0
2016-02-06T04:14:55.396Z,0
2016-02-06T04:15:55.382Z,0
2016-02-06T04:16:55.385Z,0
2016-02-06T04:17:55.373Z,0
2016-02-06T04:18:55.379Z,0
2016-02-06T04:19:55.381Z,0
2016-02-06T04:20:55.352Z,0
2016-02-06T04:21:55.372Z,0
2016-02-06T04:22:55.344Z,0
2016-02-06T04:23:55.393Z,0
2016-02-06T04:24:55.334Z,0
2016-02-06T04:25:55.321Z,0
2016-02-06T04:26:55.339Z,0
2016-02-06T04:27:55.326Z,0
2016-02-06T04:28:55.313Z,0
2016-02-06T04:29:54.568Z,0
2016-02-06T04:30:55.321Z,0
2016-02-06T04:31:55.292Z,0
2016-02-06T04:32:55.310Z,0
2016-02-06T04:33:55.282Z,0
2016-02-06T04:34:55.285Z,0
2016-02-06T04:35:55.287Z,0
2016-02-06T04:36:55.274Z,0
2016-02-06T04:37:55.292Z,0
2016-02-06T04:38:55.265Z,0
2016-02-06T04:39:55.283Z,0
2016-02-06T04:40:55.255Z,0
2016-02-06T04:41:55.257Z,0
2016-02-06T04:42:55.244Z,0
2016-02-06T04:43:55.247Z,0
2016-02-06T04:44:55.250Z,0
2016-02-06T04:45:55.237Z,0
2016-02-06T04:46:55.256Z,0
2016-02-06T04:47:55.227Z,0
2016-02-06T04:48:55.230Z,0
2016-02-06T04:49:55.218Z,0
2016-02-06T04:50:55.205Z,0
2016-02-06T04:51:55.223Z,0
2016-02-06T04:52:55.196Z,0
2016-02-06T04:53:55.215Z,0
2016-02-06T04:54:55.189Z,0
2016-02-06T04:55:55.223Z,0
2016-02-06T04:56:55.179Z,0
2016-02-06T04:57:55.181Z,0
2016-02-06T04:58:55.163Z,0
2016-02-06T04:59:55.166Z,0
2016-02-06T05:00:55.169Z,0
2016-02-06T05:01:55.156Z,0
2016-02-06T05:02:55.159Z,0
2016-02-06T05:03:55.145Z,0
2016-02-06T05:04:55.149Z,0
2016-02-06T05:05:55.136Z,0
2016-02-06T05:06:55.123Z,0
2016-02-06T05:07:55.143Z,0
2016-02-06T05:08:55.114Z,0
2016-02-06T05:09:55.116Z,0
2016-02-06T05:10:55.120Z,0
2016-02-06T05:11:55.107Z,0
2016-02-06T05:12:55.095Z,0
2016-02-06T05:13:55.097Z,0
2016-02-06T05:14:55.100Z,0
2016-02-06T05:15:55.087Z,0
2016-02-06T05:16:55.090Z,0
2016-02-06T05:17:55.108Z,0
2016-02-06T05:18:55.064Z,0
2016-02-06T05:19:54.910Z,0
2016-02-06T05:20:55.054Z,0
2016-02-06T05:21:55.057Z,0
2016-02-06T05:22:55.044Z,0
2016-02-06T05:23:55.062Z,0
2016-02-06T05:24:55.034Z,0
2016-02-06T05:25:55.025Z,0
2016-02-06T05:26:55.028Z,0
2016-02-06T05:27:55.014Z,0
2016-02-06T05:28:54.856Z,0
2016-02-06T05:29:55.015Z,0
2016-02-06T05:30:55.003Z,0
2016-02-06T05:31:55.005Z,0
2016-02-06T05:32:55.007Z,0
2016-02-06T05:33:54.997Z,0
2016-02-06T05:34:55.000Z,0
2016-02-06T05:35:54.971Z,0
2016-02-06T05:36:54.974Z,0
2016-02-06T05:37:54.976Z,0
2016-02-06T05:38:54.963Z,0
2016-02-06T05:39:54.966Z,0
2016-02-06T05:40:54.957Z,0
2016-02-06T05:41:54.959Z,0
2016-02-06T05:42:54.961Z,0
2016-02-06T05:43:54.948Z,0
2016-02-06T05:44:54.936Z,0
2016-02-06T05:45:54.923Z,0
2016-02-06T05:46:54.942Z,0
2016-02-06T05:47:54.914Z,0
2016-02-06T05:48:54.933Z,0
2016-02-06T05:49:54.920Z,0
2016-02-06T05:50:54.907Z,0
2016-02-06T05:51:54.910Z,0
2016-02-06T05:52:54.896Z,0
2016-02-06T05:53:54.917Z,0
2016-02-06T05:54:54.889Z,0
2016-02-06T05:55:54.906Z,0
2016-02-06T05:56:54.894Z,0
2016-02-06T05:57:54.881Z,0
2016-02-06T05:58:54.865Z,4
2016-02-06T05:59:55.009Z,4
2016-02-06T06:00:54.871Z,0
2016-02-06T06:01:55.126Z,0
2016-02-06T06:02:54.863Z,4
2016-02-06T06:03:54.616Z,4
2016-02-06T06:04:54.852Z,4
2016-02-06T06:05:54.855Z,4
2016-02-06T06:06:54.843Z,4
2016-02-06T06:07:54.908Z,4
2016-02-06T06:08:55.004Z,4
2016-02-06T06:09:55.147Z,8
2016-02-06T06:10:54.868Z,8
2016-02-06T06:11:55.293Z,8
2016-02-06T06:12:54.984Z,12
2016-02-06T06:13:59.487Z,16
2016-02-06T06:15:02.239Z,20
2016-02-06T06:15:54.788Z,20
2016-02-06T06:16:59.181Z,28
2016-02-06T06:17:54.794Z,28
2016-02-06T06:18:54.765Z,36
2016-02-06T06:19:54.755Z,44
2016-02-06T06:21:01.382Z,52
2016-02-06T06:21:56.183Z,64
2016-02-06T06:22:55.608Z,72
2016-02-06T06:23:57.174Z,84
2016-02-06T06:24:54.785Z,100
2016-02-06T06:25:54.741Z,112
2016-02-06T06:26:54.729Z,128
2016-02-06T06:27:54.751Z,144
2016-02-06T06:28:54.722Z,160
2016-02-06T06:29:54.916Z,176
2016-02-06T06:30:54.715Z,188
2016-02-06T06:31:54.718Z,204
2016-02-06T06:32:54.690Z,224
2016-02-06T06:33:54.693Z,248
2016-02-06T06:34:54.679Z,264
2016-02-06T06:35:54.682Z,288
2016-02-06T06:36:54.700Z,312
2016-02-06T06:37:54.718Z,340
2016-02-06T06:38:54.706Z,364
2016-02-06T06:39:54.662Z,392
2016-02-06T06:40:54.649Z,424
2016-02-06T06:41:54.668Z,460
2016-02-06T06:42:54.655Z,492
2016-02-06T06:43:54.643Z,528
2016-02-06T06:44:54.629Z,572
2016-02-06T06:45:54.663Z,608
2016-02-06T06:46:54.618Z,652
2016-02-06T06:47:54.610Z,692
2016-02-06T06:48:54.816Z,732
2016-02-06T06:49:54.630Z,776
2016-02-06T06:50:54.618Z,816
2016-02-06T06:51:54.590Z,864
2016-02-06T06:52:54.608Z,908
2016-02-06T06:53:54.596Z,964
2016-02-06T06:54:54.583Z,1016
2016-02-06T06:55:54.602Z,1072
2016-02-06T06:56:54.574Z,1124
2016-02-06T06:57:54.593Z,1176
2016-02-06T06:58:54.579Z,1224
2016-02-06T06:59:54.551Z,1276
2016-02-06T07:00:54.548Z,1324
2016-02-06T07:01:54.551Z,1380
2016-02-06T07:02:54.538Z,1436
2016-02-06T07:03:54.543Z,1488
2016-02-06T07:04:54.545Z,1528
2016-02-06T07:05:54.533Z,1568
2016-02-06T07:06:54.519Z,1600
2016-02-06T07:07:54.523Z,1640
2016-02-06T07:08:54.510Z,1684
2016-02-06T07:09:54.513Z,1724
2016-02-06T07:10:54.500Z,1760
2016-02-06T07:11:54.503Z,1800
2016-02-06T07:12:54.584Z,1840
2016-02-06T07:13:54.494Z,1880
2016-02-06T07:14:54.512Z,1928
2016-02-06T07:15:54.498Z,1988
2016-02-06T07:16:54.501Z,2036
2016-02-06T07:17:54.473Z,2064
2016-02-06T07:18:54.476Z,2112
2016-02-06T07:19:54.463Z,2156
2016-02-06T07:20:54.450Z,2204
2016-02-06T07:21:54.469Z,2264
2016-02-06T07:22:54.456Z,2320
2016-02-06T07:23:54.460Z,2384
2016-02-06T07:24:54.446Z,2432
2016-02-06T07:25:54.433Z,2484
2016-02-06T07:26:54.439Z,2524
2016-02-06T07:27:54.441Z,2580
2016-02-06T07:28:56.866Z,2660
2016-02-06T07:30:02.262Z,2712
2016-02-06T07:30:55.451Z,2752
2016-02-06T07:31:55.485Z,2788
2016-02-06T07:32:54.413Z,2816
2016-02-06T07:33:55.369Z,2860
2016-02-06T07:34:54.607Z,2904
2016-02-06T07:35:54.610Z,2940
2016-02-06T07:36:54.659Z,2976
2016-02-06T07:37:54.896Z,3016
2016-02-06T07:38:54.649Z,3056
2016-02-06T07:39:54.573Z,3092
2016-02-06T07:40:54.670Z,3136
2016-02-06T07:41:54.532Z,3172
2016-02-06T07:42:54.706Z,3204
2016-02-06T07:43:54.365Z,3244
2016-02-06T07:44:54.685Z,3284
2016-02-06T07:45:54.671Z,3316
2016-02-06T07:46:54.565Z,3352
2016-02-06T07:47:54.661Z,3372
2016-02-06T07:48:54.663Z,3428
2016-02-06T07:49:54.576Z,3476
2016-02-06T07:50:54.594Z,3536
2016-02-06T07:51:54.552Z,3624
2016-02-06T07:52:54.319Z,3732
2016-02-06T07:53:54.274Z,3832
2016-02-06T07:54:54.278Z,3912
2016-02-06T07:55:54.482Z,3956
2016-02-06T07:56:55.211Z,3984
2016-02-06T07:57:54.411Z,4020
2016-02-06T07:58:54.672Z,4076
2016-02-06T07:59:54.544Z,4140
2016-02-06T08:00:54.404Z,4192
2016-02-06T08:01:54.294Z,4228
2016-02-06T08:02:54.421Z,4280
2016-02-06T08:03:54.330Z,4328
2016-02-06T08:04:54.535Z,4396
2016-02-06T08:05:54.192Z,4444
2016-02-06T08:06:54.255Z,4472
2016-02-06T08:07:54.525Z,4464
2016-02-06T08:08:54.261Z,4476
2016-02-06T08:09:54.388Z,4488
2016-02-06T08:10:54.312Z,4492
2016-02-06T08:11:54.392Z,4512
2016-02-06T08:12:54.410Z,4532
2016-02-06T08:13:54.319Z,4532
2016-02-06T08:14:54.227Z,4524
2016-02-06T08:15:54.293Z,4596
2016-02-06T08:16:54.373Z,4624
2016-02-06T08:17:54.173Z,4704
2016-02-06T08:18:54.222Z,4760
2016-02-06T08:19:55.250Z,4812
2016-02-06T08:20:53.957Z,4860
2016-02-06T08:21:54.731Z,4908
2016-02-06T08:22:54.797Z,4968
2016-02-06T08:23:54.535Z,5016
2016-02-06T08:24:54.302Z,5076
2016-02-06T08:25:54.619Z,5100
2016-02-06T08:26:54.199Z,5156
2016-02-06T08:27:54.108Z,5188
2016-02-06T08:28:54.188Z,5220
2016-02-06T08:29:54.488Z,5256
2016-02-06T08:30:54.226Z,5300
2016-02-06T08:31:54.213Z,5368
2016-02-06T08:32:54.315Z,5436
2016-02-06T08:33:54.207Z,5508
2016-02-06T08:34:54.524Z,5596
2016-02-06T08:35:54.105Z,5668
2016-02-06T08:36:54.076Z,5752
2016-02-06T08:37:54.079Z,5820
2016-02-06T08:38:55.096Z,5872
2016-02-06T08:39:54.896Z,5892
2016-02-06T08:40:54.212Z,5860
2016-02-06T08:41:54.286Z,5872
2016-02-06T08:42:54.272Z,5892
2016-02-06T08:43:54.305Z,5916
2016-02-06T08:44:54.137Z,5940
2016-02-06T08:45:54.437Z,6008
2016-02-06T08:46:54.333Z,6060
2016-02-06T08:47:54.492Z,6112
2016-02-06T08:48:54.385Z,6180
2016-02-06T08:49:54.403Z,6224
2016-02-06T08:50:54.485Z,6276
2016-02-06T08:51:54.379Z,6280
2016-02-06T08:52:54.148Z,6196
2016-02-06T08:53:54.260Z,6088
2016-02-06T08:54:54.328Z,6000
2016-02-06T08:55:54.081Z,5820
2016-02-06T08:56:54.052Z,5592
2016-02-06T08:57:54.054Z,5300
2016-02-06T08:58:54.761Z,5112
2016-02-06T08:59:54.060Z,4900
2016-02-06T09:00:54.047Z,4708
2016-02-06T09:01:54.055Z,4568
2016-02-06T09:02:54.120Z,4496
2016-02-06T09:03:54.044Z,4464
2016-02-06T09:04:54.072Z,4444
2016-02-06T09:05:54.029Z,4436
2016-02-06T09:06:54.235Z,4440
2016-02-06T09:07:54.160Z,4428
2016-02-06T09:08:54.147Z,4432
2016-02-06T09:09:54.385Z,4436
2016-02-06T09:10:54.091Z,4416
2016-02-06T09:11:54.343Z,4396
2016-02-06T09:12:54.221Z,4368
2016-02-06T09:13:54.255Z,4376
2016-02-06T09:14:54.212Z,4416
2016-02-06T09:15:54.245Z,4472
2016-02-06T09:16:54.280Z,4516
2016-02-06T09:17:54.143Z,4588
2016-02-06T09:18:54.176Z,4656
2016-02-06T09:19:54.210Z,4760
2016-02-06T09:20:54.297Z,4784
2016-02-06T09:21:54.283Z,4756
2016-02-06T09:22:54.458Z,4724
2016-02-06T09:23:54.414Z,4800
2016-02-06T09:24:54.199Z,4884
2016-02-06T09:25:54.389Z,4952
2016-02-06T09:26:54.189Z,5000
2016-02-06T09:27:54.020Z,5040
2016-02-06T09:29:08.133Z,5096
2016-02-06T09:29:54.026Z,5104
2016-02-06T09:30:54.029Z,5156
2016-02-06T09:31:55.172Z,5184
2016-02-06T09:32:55.035Z,5280
2016-02-06T09:33:54.271Z,5368
2016-02-06T09:34:54.196Z,5536
2016-02-06T09:35:54.091Z,5660
2016-02-06T09:36:54.343Z,5760
2016-02-06T09:37:54.158Z,5840
2016-02-06T09:38:54.240Z,6024
2016-02-06T09:39:54.132Z,6248
2016-02-06T09:40:54.292Z,6400
2016-02-06T09:41:54.294Z,6504
2016-02-06T09:42:54.266Z,6660
2016-02-06T09:43:54.348Z,6820
2016-02-06T09:44:54.367Z,6956
2016-02-06T09:45:54.291Z,7136
2016-02-06T09:46:54.278Z,7320
2016-02-06T09:47:54.328Z,7508
2016-02-06T09:48:54.144Z,7728
2016-02-06T09:49:54.224Z,7936
2016-02-06T09:50:54.306Z,8132
2016-02-06T09:51:54.230Z,8396
2016-02-06T09:52:54.343Z,8644
2016-02-06T09:53:54.189Z,8880
2016-02-06T09:54:54.379Z,9076
2016-02-06T09:55:54.334Z,9144
2016-02-06T09:56:54.587Z,9212
2016-02-06T09:57:54.169Z,9268
2016-02-06T09:58:54.139Z,9124
2016-02-06T09:59:54.314Z,8912
2016-02-06T10:00:54.270Z,8780
2016-02-06T10:01:54.241Z,8764
2016-02-06T10:02:54.189Z,8804
2016-02-06T10:03:54.301Z,8880
2016-02-06T10:04:54.210Z,8996
2016-02-06T10:05:54.088Z,9216
2016-02-06T10:06:54.152Z,9424
2016-02-06T10:07:54.077Z,9732
2016-02-06T10:08:54.174Z,10044
2016-02-06T10:09:54.302Z,10384
2016-02-06T10:10:54.493Z,10752
2016-02-06T10:11:54.041Z,11140
2016-02-06T10:12:54.029Z,11304
2016-02-06T10:13:54.016Z,11536
2016-02-06T10:14:55.098Z,11828
2016-02-06T10:15:54.772Z,11908
2016-02-06T10:16:54.247Z,12092
2016-02-06T10:17:54.281Z,12252
2016-02-06T10:18:54.237Z,12304
2016-02-06T10:19:54.286Z,12212
2016-02-06T10:20:54.272Z,12136
2016-02-06T10:21:54.404Z,12400
2016-02-06T10:22:54.127Z,12632
2016-02-06T10:23:54.192Z,12680
2016-02-06T10:24:54.070Z,12648
2016-02-06T10:25:54.244Z,12580
2016-02-06T10:26:54.652Z,12424
2016-02-06T10:27:54.281Z,12324
2016-02-06T10:28:54.237Z,12256
2016-02-06T10:29:54.162Z,12156
2016-02-06T10:30:54.337Z,12144
2016-02-06T10:31:54.341Z,12072
2016-02-06T10:32:54.452Z,11932
2016-02-06T10:33:54.330Z,11744
2016-02-06T10:34:54.411Z,11532
2016-02-06T10:35:54.367Z,11364
2016-02-06T10:36:54.230Z,11284
2016-02-06T10:37:54.264Z,11256
2016-02-06T10:38:54.328Z,11208
2016-02-06T10:39:54.472Z,11064
2016-02-06T10:40:54.458Z,10948
2016-02-06T10:41:54.399Z,10900
2016-02-06T10:42:54.309Z,10832
2016-02-06T10:43:54.406Z,10680
2016-02-06T10:44:54.252Z,10696
2016-02-06T10:45:54.395Z,10656
2016-02-06T10:46:54.585Z,10596
2016-02-06T10:47:54.435Z,10508
2016-02-06T10:48:54.377Z,10448
2016-02-06T10:49:54.379Z,10496
2016-02-06T10:50:54.304Z,10648
2016-02-06T10:51:54.432Z,10864
2016-02-06T10:52:53.699Z,11096
2016-02-06T10:53:54.391Z,11192
2016-02-06T10:54:54.127Z,11264
2016-02-06T10:55:54.131Z,11368
2016-02-06T10:56:54.180Z,11548
2016-02-06T10:57:54.933Z,11676
2016-02-06T10:58:54.967Z,11636
2016-02-06T10:59:54.115Z,11492
2016-02-06T11:00:54.148Z,11420
2016-02-06T11:01:54.135Z,11316
2016-02-06T11:02:54.154Z,11388
2016-02-06T11:03:54.142Z,11460
2016-02-06T11:04:54.160Z,11544
2016-02-06T11:05:54.147Z,11624
2016-02-06T11:06:54.165Z,11692
2016-02-06T11:07:54.152Z,11748
2016-02-06T11:08:54.174Z,11780
2016-02-06T11:09:54.146Z,11816
2016-02-06T11:10:54.163Z,11848
2016-02-06T11:11:54.167Z,11824
2016-02-06T11:12:54.169Z,11756
2016-02-06T11:13:54.172Z,11660
2016-02-06T11:14:54.191Z,11648
2016-02-06T11:15:54.163Z,11628
2016-02-06T11:16:54.180Z,11640
2016-02-06T11:17:54.183Z,11624
2016-02-06T11:18:54.201Z,11664
2016-02-06T11:19:54.189Z,11684
2016-02-06T11:20:54.207Z,11636
2016-02-06T11:21:54.194Z,11620
2016-02-06T11:22:54.228Z,11628
2016-02-06T11:23:54.200Z,11720
2016-02-06T11:24:54.235Z,11808
2016-02-06T11:25:54.206Z,11892
2016-02-06T11:26:54.255Z,11972
2016-02-06T11:27:54.223Z,11996
2016-02-06T11:28:54.241Z,12020
2016-02-06T11:29:54.451Z,12036
2016-02-06T11:30:54.250Z,11968
2016-02-06T11:31:54.221Z,11892
2016-02-06T11:32:54.255Z,11832
2016-02-06T11:33:54.242Z,11780
2016-02-06T11:34:54.277Z,11692
2016-02-06T11:35:54.435Z,11624
2016-02-06T11:36:54.270Z,11576
2016-02-06T11:37:54.257Z,11496
2016-02-06T11:38:54.261Z,11376
2016-02-06T11:39:54.139Z,11280
2016-02-06T11:40:54.266Z,11156
2016-02-06T11:41:54.269Z,11044
2016-02-06T11:42:54.271Z,10976
2016-02-06T11:43:54.274Z,10864
2016-02-06T11:44:54.292Z,10728
2016-02-06T11:45:54.280Z,10616
2016-02-06T11:46:54.282Z,10516
2016-02-06T11:47:54.284Z,10396
2016-02-06T11:48:54.303Z,10332
2016-02-06T11:49:54.306Z,10308
2016-02-06T11:50:54.294Z,10268
2016-02-06T11:51:54.312Z,10320
2016-02-06T11:52:54.299Z,10352
2016-02-06T11:53:54.317Z,10436
2016-02-06T11:54:54.617Z,10552
2016-02-06T11:55:54.588Z,10684
2016-02-06T11:56:54.357Z,10860
2016-02-06T11:57:54.750Z,10956
2016-02-06T11:58:54.331Z,11068
2016-02-06T11:59:54.398Z,11124
2016-02-06T12:00:54.338Z,11136
2016-02-06T12:01:54.372Z,11128
2016-02-06T12:02:54.344Z,11104
2016-02-06T12:03:54.347Z,11136
2016-02-06T12:04:53.600Z,11204
2016-02-06T12:05:54.368Z,11264
2016-02-06T12:06:54.355Z,11244
2016-02-06T12:07:54.405Z,11168
2016-02-06T12:08:54.361Z,11172
2016-02-06T12:09:54.396Z,11160
2016-02-06T12:10:54.386Z,11096
2016-02-06T12:11:54.419Z,11012
2016-02-06T12:12:54.391Z,11004
2016-02-06T12:13:54.409Z,10992
2016-02-06T12:14:54.396Z,11008
2016-02-06T12:15:54.419Z,10984
2016-02-06T12:16:54.563Z,10860
2016-02-06T12:17:54.409Z,10836
2016-02-06T12:18:54.413Z,10804
2016-02-06T12:19:54.416Z,10784
2016-02-06T12:20:54.419Z,10780
2016-02-06T12:21:54.671Z,10816
2016-02-06T12:22:54.377Z,10984
2016-02-06T12:23:54.443Z,11024
2016-02-06T12:24:54.447Z,11124
2016-02-06T12:25:54.449Z,11196
2016-02-06T12:26:54.437Z,11240
2016-02-06T12:27:54.470Z,11248
2016-02-06T12:28:54.444Z,11248
2016-02-06T12:29:54.478Z,11208
2016-02-06T12:30:54.464Z,11100
2016-02-06T12:31:54.484Z,11040
2016-02-06T12:32:54.612Z,10988
2016-02-06T12:33:54.567Z,10908
2016-02-06T12:34:54.492Z,10812
2016-02-06T12:35:54.525Z,10704
2016-02-06T12:36:54.514Z,10504
2016-02-06T12:37:54.501Z,10400
2016-02-06T12:38:54.348Z,10148
2016-02-06T12:39:54.506Z,9948
2016-02-06T12:40:54.494Z,9896
2016-02-06T12:41:54.512Z,9696
2016-02-06T12:42:54.499Z,9720
2016-02-06T12:43:54.532Z,9756
2016-02-06T12:44:54.520Z,9688
2016-02-06T12:45:54.538Z,9648
2016-02-06T12:46:54.525Z,9628
2016-02-06T12:47:54.543Z,9412
2016-02-06T12:48:54.531Z,9168
2016-02-06T12:49:54.565Z,8944
2016-02-06T12:50:54.522Z,8792
2016-02-06T12:51:54.604Z,8776
2016-02-06T12:52:54.559Z,8788
2016-02-06T12:53:54.578Z,8808
2016-02-06T12:54:54.565Z,8876
2016-02-06T12:55:54.615Z,8908
2016-02-06T12:56:54.571Z,8920
2016-02-06T12:57:54.576Z,8820
2016-02-06T12:58:54.594Z,8712
2016-02-06T12:59:54.584Z,8844
2016-02-06T13:00:54.618Z,9080
2016-02-06T13:01:54.636Z,9356
2016-02-06T13:02:54.592Z,9608
2016-02-06T13:03:54.672Z,9772
2016-02-06T13:04:54.614Z,9892
2016-02-06T13:05:54.648Z,9984
2016-02-06T13:06:54.650Z,9928
2016-02-06T13:07:54.622Z,9724
2016-02-06T13:08:54.641Z,9436
2016-02-06T13:09:54.644Z,9104
2016-02-06T13:10:54.664Z,8700
2016-02-06T13:11:54.636Z,8260
2016-02-06T13:12:54.653Z,7828
2016-02-06T13:13:54.656Z,7400
2016-02-06T13:14:54.659Z,7024
2016-02-06T13:15:54.662Z,6696
2016-02-06T13:16:54.711Z,6440
2016-02-06T13:17:54.672Z,6208
2016-02-06T13:18:54.674Z,6016
2016-02-06T13:19:54.677Z,5804
2016-02-06T13:20:54.696Z,5608
2016-02-06T13:21:54.683Z,5416
2016-02-06T13:22:54.685Z,5260
2016-02-06T13:23:54.705Z,5112
2016-02-06T13:24:54.769Z,4976
2016-02-06T13:25:54.697Z,4872
2016-02-06T13:26:54.699Z,4800
2016-02-06T13:27:54.719Z,4716
2016-02-06T13:28:54.721Z,4668
2016-02-06T13:29:54.740Z,4668
2016-02-06T13:30:54.745Z,4672
2016-02-06T13:31:54.748Z,4660
2016-02-06T13:32:54.735Z,4712
2016-02-06T13:33:54.752Z,4708
2016-02-06T13:34:54.788Z,4680
2016-02-06T13:35:54.809Z,4676
2016-02-06T13:36:54.780Z,4780
2016-02-06T13:37:54.783Z,4832
2016-02-06T13:38:54.759Z,4884
2016-02-06T13:39:54.792Z,4936
2016-02-06T13:40:54.764Z,4936
2016-02-06T13:41:54.766Z,4940
2016-02-06T13:42:54.784Z,4936
2016-02-06T13:43:54.788Z,4924
2016-02-06T13:44:54.775Z,4956
2016-02-06T13:45:54.793Z,5004
2016-02-06T13:46:54.827Z,4976
2016-02-06T13:47:55.564Z,4984
2016-02-06T13:48:55.176Z,5028
2016-02-06T13:49:54.835Z,5048
2016-02-06T13:50:54.823Z,5068
2016-02-06T13:51:54.828Z,4968
2016-02-06T13:52:54.815Z,5000